Time;durP1;ratioP1;P1;durP2;ratioP2;P2;SDS_P1;SDS_P2;PMS_P1;PMS_P2;Temp;Humidity;BMP_temperature;BMP_pressure;BME280_temperature;BME280_humidity;BME280_pressure;Samples;Min_cycle;Max_cycle;Signal;HPM_P1;HPM_P2
2022/07/16 00:01:25;;;;;;;2.40;1.07;;;14.90;99.90;;;;;;5073343;28;20249;-77
2022/07/16 00:03:56;;;;;;;1.60;1.30;;;14.90;99.90;;;;;;5073849;28;20151;-78
2022/07/16 00:06:24;;;;;;;2.73;1.10;;;14.90;99.90;;;;;;5072328;28;20564;-77
2022/07/16 00:08:51;;;;;;;4.40;1.30;;;14.90;99.90;;;;;;5073340;28;20201;-77
2022/07/16 00:11:16;;;;;;;1.30;1.20;;;14.90;99.90;;;;;;5072016;28;20178;-77
2022/07/16 00:13:42;;;;;;;2.03;1.07;;;14.90;99.90;;;;;;5072134;28;20210;-78
2022/07/16 00:16:09;;;;;;;3.00;1.10;;;14.90;99.90;;;;;;5073000;28;20193;-77
2022/07/16 00:21:19;;;;;;;4.57;1.60;;;14.90;99.90;;;;;;5073622;28;20659;-78
2022/07/16 00:23:45;;;;;;;5.37;1.50;;;14.90;99.90;;;;;;5072215;28;20175;-77
2022/07/16 00:26:10;;;;;;;3.20;1.33;;;14.90;99.90;;;;;;5073416;28;20243;-77
2022/07/16 00:28:36;;;;;;;1.97;1.13;;;14.90;99.90;;;;;;5073223;28;20262;-78
2022/07/16 00:31:02;;;;;;;3.70;1.13;;;15.00;99.90;;;;;;5073212;28;20246;-78
2022/07/16 00:33:28;;;;;;;3.60;1.60;;;14.90;99.90;;;;;;5071598;28;20202;-77
2022/07/16 00:35:53;;;;;;;4.53;1.30;;;14.90;99.90;;;;;;5072941;28;20183;-78
2022/07/16 00:38:19;;;;;;;3.13;1.20;;;14.90;99.90;;;;;;5073046;28;20171;-77
2022/07/16 00:40:44;;;;;;;3.63;1.40;;;14.90;99.90;;;;;;5073071;28;20171;-76
2022/07/16 00:43:14;;;;;;;3.27;1.50;;;14.90;99.90;;;;;;5071485;28;20178;-77
2022/07/16 00:45:40;;;;;;;2.27;1.27;;;14.90;99.90;;;;;;5072835;28;20292;-77
2022/07/16 00:48:07;;;;;;;4.63;1.60;;;14.80;99.90;;;;;;5072860;28;20171;-78
2022/07/16 00:50:33;;;;;;;1.50;1.27;;;14.80;99.90;;;;;;5073123;28;20175;-77
2022/07/16 00:53:01;;;;;;;2.47;1.47;;;14.80;99.90;;;;;;5072785;28;20198;-78
2022/07/16 00:55:27;;;;;;;2.07;1.20;;;14.80;99.90;;;;;;5072582;28;20190;-78
2022/07/16 00:57:53;;;;;;;1.60;1.10;;;14.80;99.90;;;;;;5073018;28;20175;-78
2022/07/16 01:00:19;;;;;;;2.87;1.30;;;14.70;99.90;;;;;;5074406;28;20220;-77
2022/07/16 01:02:44;;;;;;;1.63;1.13;;;14.60;99.90;;;;;;5075767;28;20174;-77
2022/07/16 01:05:10;;;;;;;2.73;1.23;;;14.70;99.90;;;;;;5075396;28;20293;-78
2022/07/16 01:07:36;;;;;;;2.10;1.03;;;14.60;99.90;;;;;;5074985;28;20202;-77
2022/07/16 01:10:04;;;;;;;2.90;1.70;;;14.60;99.90;;;;;;5077368;28;20578;-78
2022/07/16 01:12:30;;;;;;;1.37;1.20;;;14.60;99.90;;;;;;5074988;28;20565;-78
2022/07/16 01:14:57;;;;;;;4.97;1.77;;;14.60;99.90;;;;;;5076509;28;20194;-78
2022/07/16 01:17:22;;;;;;;2.60;1.13;;;14.50;99.90;;;;;;5075316;28;20698;-78
2022/07/16 01:19:48;;;;;;;2.80;1.30;;;14.60;99.90;;;;;;5074653;28;20167;-77
2022/07/16 01:22:19;;;;;;;4.03;1.40;;;14.50;99.90;;;;;;5074943;28;20179;-78
2022/07/16 01:24:44;;;;;;;2.40;1.53;;;14.50;99.90;;;;;;5075880;28;20178;-77
2022/07/16 01:27:10;;;;;;;3.97;1.30;;;14.50;99.90;;;;;;5075414;28;20194;-78
2022/07/16 01:29:35;;;;;;;2.90;1.40;;;14.50;99.90;;;;;;5076154;28;20171;-78
2022/07/16 01:32:01;;;;;;;4.90;1.73;;;14.50;99.90;;;;;;5074680;28;20175;-77
2022/07/16 01:34:26;;;;;;;3.43;1.67;;;14.50;99.90;;;;;;5075969;28;20207;-77
2022/07/16 01:36:54;;;;;;;1.90;1.50;;;14.40;99.90;;;;;;5075682;28;20236;-77
2022/07/16 01:39:19;;;;;;;3.37;1.33;;;14.50;99.90;;;;;;5075828;28;20171;-77
2022/07/16 01:41:56;;;;;;;2.10;1.40;;;14.50;99.90;;;;;;5075812;28;20175;-77
2022/07/16 01:44:27;;;;;;;1.87;1.27;;;14.50;99.90;;;;;;5076351;28;20591;-77
2022/07/16 01:46:53;;;;;;;3.30;1.60;;;14.50;99.90;;;;;;5074734;28;20198;-77
2022/07/16 01:49:19;;;;;;;4.30;1.37;;;14.50;99.90;;;;;;5075661;28;20171;-78
2022/07/16 01:51:45;;;;;;;3.67;1.40;;;14.50;99.90;;;;;;5074235;28;20269;-77
2022/07/16 01:54:10;;;;;;;2.17;1.33;;;14.50;99.90;;;;;;5075747;28;20191;-77
2022/07/16 01:56:36;;;;;;;1.93;1.30;;;14.50;99.90;;;;;;5075178;28;20191;-77
2022/07/16 01:59:02;;;;;;;2.20;1.50;;;14.50;99.90;;;;;;5075927;28;20171;-78
2022/07/16 02:01:27;;;;;;;3.10;1.60;;;14.50;99.90;;;;;;5075903;28;20167;-77
2022/07/16 02:03:53;;;;;;;2.40;1.43;;;14.50;99.90;;;;;;5074458;28;20175;-77
2022/07/16 02:06:18;;;;;;;2.53;1.30;;;14.50;99.90;;;;;;5073987;28;20248;-78
2022/07/16 02:08:44;;;;;;;2.33;1.50;;;14.50;99.90;;;;;;5075161;28;20649;-76
2022/07/16 02:11:09;;;;;;;2.73;1.50;;;14.50;99.90;;;;;;5073810;28;20598;-78
2022/07/16 02:13:35;;;;;;;3.27;1.53;;;14.50;99.90;;;;;;5074893;28;20696;-77
2022/07/16 02:16:01;;;;;;;7.80;1.63;;;14.50;99.90;;;;;;5075292;28;20186;-76
2022/07/16 02:18:26;;;;;;;4.03;1.50;;;14.60;99.90;;;;;;5074174;28;20182;-78
2022/07/16 02:20:52;;;;;;;3.40;1.27;;;14.60;99.90;;;;;;5075262;28;20557;-78
2022/07/16 02:23:18;;;;;;;2.80;1.40;;;14.50;99.90;;;;;;5075403;28;20523;-76
2022/07/16 02:25:44;;;;;;;2.70;1.80;;;14.50;99.90;;;;;;5075007;28;20244;-76
2022/07/16 02:28:09;;;;;;;3.53;1.47;;;14.60;99.90;;;;;;5073919;28;20273;-77
2022/07/16 02:30:40;;;;;;;3.53;1.40;;;14.60;99.90;;;;;;5075135;28;20652;-77
2022/07/16 02:33:07;;;;;;;2.20;1.40;;;14.60;99.90;;;;;;5075141;28;20300;-77
2022/07/16 02:35:33;;;;;;;3.13;1.77;;;14.50;99.90;;;;;;5074847;28;20274;-77
2022/07/16 02:37:58;;;;;;;2.93;1.33;;;14.60;99.90;;;;;;5073652;28;20213;-78
2022/07/16 02:40:24;;;;;;;2.10;1.50;;;14.60;99.90;;;;;;5075008;28;20209;-78
2022/07/16 02:42:50;;;;;;;2.97;1.50;;;14.60;99.90;;;;;;5074851;28;20191;-77
2022/07/16 02:45:15;;;;;;;1.90;1.40;;;14.60;99.90;;;;;;5073435;28;20680;-78
2022/07/16 02:47:41;;;;;;;3.03;1.63;;;14.50;99.90;;;;;;5074813;28;20253;-78
2022/07/16 02:50:08;;;;;;;1.63;1.40;;;14.50;99.90;;;;;;5074306;28;20250;-78
2022/07/16 02:52:35;;;;;;;2.27;1.77;;;14.50;99.90;;;;;;5073043;28;20175;-78
2022/07/16 02:55:00;;;;;;;2.50;1.40;;;14.60;99.90;;;;;;5073970;28;20259;-77
2022/07/16 02:57:26;;;;;;;3.23;1.47;;;14.60;99.90;;;;;;5074457;28;20256;-78
2022/07/16 02:59:52;;;;;;;2.17;1.50;;;14.60;99.90;;;;;;5073506;28;20178;-77
2022/07/16 03:02:17;;;;;;;4.13;1.83;;;14.60;99.90;;;;;;5072975;28;20174;-78
2022/07/16 03:04:43;;;;;;;3.30;1.80;;;14.60;99.90;;;;;;5073493;28;20179;-77
2022/07/16 03:07:08;;;;;;;3.20;1.40;;;14.60;99.90;;;;;;5072871;28;20195;-78
2022/07/16 03:09:34;;;;;;;4.87;1.80;;;14.60;99.90;;;;;;5074539;28;20648;-78
2022/07/16 03:11:59;;;;;;;2.47;1.70;;;14.60;99.90;;;;;;5074887;28;20545;-77
2022/07/16 03:14:25;;;;;;;3.17;1.40;;;14.70;99.90;;;;;;5074057;28;20206;-77
2022/07/16 03:16:51;;;;;;;2.30;1.40;;;14.70;99.90;;;;;;5074533;28;20178;-78
2022/07/16 03:19:16;;;;;;;2.27;1.53;;;14.70;99.90;;;;;;5074533;28;20174;-78
2022/07/16 03:21:42;;;;;;;5.47;2.27;;;14.70;99.90;;;;;;5074520;28;20174;-78
2022/07/16 03:24:07;;;;;;;3.00;1.77;;;14.70;99.90;;;;;;5072306;28;20182;-78
2022/07/16 03:26:33;;;;;;;4.00;1.70;;;14.70;99.90;;;;;;5073788;28;20198;-77
2022/07/16 03:28:58;;;;;;;4.23;2.10;;;14.80;99.90;;;;;;5074380;28;20182;-78
2022/07/16 03:31:24;;;;;;;2.70;1.90;;;14.80;99.90;;;;;;5074019;28;20175;-78
2022/07/16 03:33:49;;;;;;;4.53;1.87;;;14.80;99.90;;;;;;5072554;28;20190;-77
2022/07/16 03:36:15;;;;;;;6.37;1.87;;;14.80;99.90;;;;;;5073871;28;20221;-77
2022/07/16 03:41:25;;;;;;;6.67;1.90;;;14.90;99.90;;;;;;5074052;28;20161;-78
2022/07/16 03:43:51;;;;;;;4.53;1.63;;;14.90;99.90;;;;;;5073991;28;20179;-77
2022/07/16 03:46:17;;;;;;;5.83;1.83;;;15.00;99.90;;;;;;5074019;28;20568;-78
2022/07/16 03:48:43;;;;;;;3.30;1.90;;;15.00;99.90;;;;;;5074335;28;20243;-77
2022/07/16 03:51:09;;;;;;;5.13;2.00;;;15.00;99.90;;;;;;5073974;28;20198;-78
2022/07/16 03:53:35;;;;;;;5.47;1.83;;;15.00;99.90;;;;;;5072687;28;20199;-78
2022/07/16 03:56:01;;;;;;;5.97;2.00;;;15.00;99.90;;;;;;5073789;28;20183;-77
2022/07/16 03:58:27;;;;;;;3.73;1.70;;;15.10;99.90;;;;;;5074046;28;20645;-78
2022/07/16 04:00:53;;;;;;;3.90;2.00;;;15.00;99.90;;;;;;5072757;28;20212;-78
2022/07/16 04:03:19;;;;;;;5.33;2.20;;;15.00;99.90;;;;;;5073852;28;20170;-78
2022/07/16 04:05:44;;;;;;;4.63;2.10;;;15.00;99.90;;;;;;5073944;28;20305;-76
2022/07/16 04:08:10;;;;;;;6.27;1.97;;;15.00;99.90;;;;;;5073743;28;20212;-78
2022/07/16 04:10:36;;;;;;;3.20;1.77;;;15.10;99.90;;;;;;5072473;28;20553;-78
2022/07/16 04:13:01;;;;;;;4.30;2.17;;;15.10;99.90;;;;;;5073637;28;20182;-78
2022/07/16 04:15:27;;;;;;;4.63;2.07;;;15.10;99.90;;;;;;5072612;28;20202;-77
2022/07/16 04:17:53;;;;;;;6.43;1.80;;;15.10;99.90;;;;;;5072538;28;20262;-78
2022/07/16 04:20:19;;;;;;;4.20;1.90;;;15.20;99.90;;;;;;5073678;28;20653;-78
2022/07/16 04:22:44;;;;;;;1.97;1.47;;;15.20;99.90;;;;;;5073985;28;20258;-77
2022/07/16 04:25:12;;;;;;;5.60;1.63;;;15.20;99.90;;;;;;5073676;28;20170;-78
2022/07/16 04:27:38;;;;;;;2.27;1.67;;;15.20;99.90;;;;;;5075108;28;20588;-78
2022/07/16 04:30:05;;;;;;;3.43;1.70;;;15.20;99.90;;;;;;5073410;28;20181;-77
2022/07/16 04:32:30;;;;;;;5.30;2.10;;;15.30;99.90;;;;;;5073535;28;20266;-77
2022/07/16 04:34:56;;;;;;;4.90;2.13;;;15.30;99.90;;;;;;5074854;28;20286;-78
2022/07/16 04:37:21;;;;;;;3.57;1.83;;;15.30;99.90;;;;;;5078283;28;20271;-79
2022/07/16 04:39:47;;;;;;;5.73;2.13;;;15.30;99.90;;;;;;5077397;28;20204;-76
2022/07/16 04:42:13;;;;;;;3.13;1.57;;;15.40;99.90;;;;;;5077245;28;20660;-78
2022/07/16 04:44:38;;;;;;;3.53;2.13;;;15.30;99.90;;;;;;5077031;28;20645;-78
2022/07/16 04:47:04;;;;;;;3.17;1.70;;;15.40;99.90;;;;;;5077526;28;20213;-78
2022/07/16 04:49:29;;;;;;;3.50;2.10;;;15.40;99.90;;;;;;5076621;28;20179;-77
2022/07/16 04:51:55;;;;;;;3.93;1.57;;;15.50;99.90;;;;;;5075202;28;20178;-77
2022/07/16 04:54:20;;;;;;;3.47;1.50;;;15.50;99.90;;;;;;5076498;28;20236;-77
2022/07/16 04:56:46;;;;;;;2.53;1.60;;;15.50;99.90;;;;;;5074585;28;20195;-77
2022/07/16 04:59:11;;;;;;;5.40;1.80;;;15.50;99.90;;;;;;5075879;28;20278;-77
2022/07/16 05:01:37;;;;;;;5.23;1.63;;;15.50;99.90;;;;;;5075902;28;20193;-77
2022/07/16 05:04:02;;;;;;;3.03;1.70;;;15.50;99.90;;;;;;5075870;28;20178;-77
2022/07/16 05:06:28;;;;;;;1.60;1.50;;;15.60;99.90;;;;;;5074403;28;20194;-77
2022/07/16 05:08:56;;;;;;;3.43;1.73;;;15.60;99.90;;;;;;5074362;28;20170;-78
2022/07/16 05:11:22;;;;;;;3.33;1.63;;;15.60;99.90;;;;;;5076120;28;20174;-78
2022/07/16 05:13:47;;;;;;;6.10;1.60;;;15.60;99.90;;;;;;5074221;28;20211;-77
2022/07/16 05:16:13;;;;;;;5.47;2.03;;;15.70;99.90;;;;;;5074354;28;20297;-77
2022/07/16 05:18:39;;;;;;;4.90;1.93;;;15.70;99.90;;;;;;5075597;28;20174;-78
2022/07/16 05:21:04;;;;;;;3.30;1.60;;;15.70;99.90;;;;;;5075506;28;20174;-77
2022/07/16 05:23:30;;;;;;;1.70;1.43;;;15.80;99.90;;;;;;5075592;28;20174;-77
2022/07/16 05:25:55;;;;;;;3.77;1.77;;;15.80;99.90;;;;;;5074164;28;20665;-77
2022/07/16 05:28:21;;;;;;;2.80;1.57;;;15.80;99.90;;;;;;5075590;28;20624;-77
2022/07/16 05:30:46;;;;;;;5.80;2.40;;;15.80;99.90;;;;;;5075301;28;20220;-77
2022/07/16 05:33:12;;;;;;;2.67;1.50;;;15.80;99.90;;;;;;5075111;28;20198;-77
2022/07/16 05:35:37;;;;;;;3.90;1.60;;;16.00;99.90;;;;;;5073935;28;20252;-78
2022/07/16 05:38:03;;;;;;;2.40;1.70;;;16.00;99.90;;;;;;5075366;28;20660;-77
2022/07/16 05:40:28;;;;;;;3.07;1.37;;;16.00;99.90;;;;;;5073905;28;20220;-77
2022/07/16 05:42:54;;;;;;;3.30;1.50;;;16.10;99.90;;;;;;5074933;28;20175;-78
2022/07/16 05:45:19;;;;;;;3.17;1.70;;;16.10;99.90;;;;;;5074844;28;20193;-77
2022/07/16 05:47:45;;;;;;;4.10;1.90;;;16.10;99.90;;;;;;5073625;28;20179;-76
2022/07/16 05:50:11;;;;;;;4.37;2.80;;;16.20;99.90;;;;;;5075280;28;20312;-77
2022/07/16 05:52:37;;;;;;;6.00;2.93;;;16.30;99.90;;;;;;5075039;28;20166;-78
2022/07/16 05:55:02;;;;;;;3.43;2.60;;;16.40;74.90;;;;;;5073570;28;20290;-77
2022/07/16 05:57:28;;;;;;;4.40;2.47;;;16.50;78.20;;;;;;5075075;28;20175;-77
2022/07/16 05:59:54;;;;;;;4.97;3.17;;;16.50;89.40;;;;;;5074740;28;20175;-77
2022/07/16 06:02:19;;;;;;;6.60;3.50;;;16.60;1.00;;;;;;5074763;28;20213;-77
2022/07/16 06:04:45;;;;;;;6.13;3.00;;;16.80;99.90;;;;;;5073292;28;20174;-76
2022/07/16 06:07:11;;;;;;;5.43;2.93;;;16.80;99.90;;;;;;5074405;28;20244;-77
2022/07/16 06:09:36;;;;;;;7.47;3.10;;;16.90;63.50;;;;;;5073076;28;20269;-77
2022/07/16 06:12:02;;;;;;;7.83;3.07;;;16.90;1.00;;;;;;5073200;28;20601;-78
2022/07/16 06:14:27;;;;;;;4.97;2.80;;;17.10;1.00;;;;;;5073198;28;20210;-77
2022/07/16 06:16:53;;;;;;;5.80;3.47;;;17.10;1.00;;;;;;5074531;28;20203;-77
2022/07/16 06:19:19;;;;;;;6.93;3.43;;;17.10;99.90;;;;;;5074296;28;20259;-77
2022/07/16 06:21:44;;;;;;;4.47;2.80;;;17.20;1.00;;;;;;5074807;28;20694;-76
2022/07/16 06:24:10;;;;;;;6.17;3.60;;;17.30;1.00;;;;;;5074468;28;20182;-78
2022/07/16 06:26:35;;;;;;;9.03;3.70;;;17.30;99.90;;;;;;5074098;28;20198;-77
2022/07/16 06:29:01;;;;;;;5.00;3.33;;;17.40;99.90;;;;;;5074180;28;20190;-77
2022/07/16 06:31:26;;;;;;;4.90;3.10;;;17.40;99.90;;;;;;5074039;28;20199;-77
2022/07/16 06:33:52;;;;;;;8.13;3.50;;;17.50;1.00;;;;;;5072488;28;20209;-78
2022/07/16 06:36:17;;;;;;;4.07;3.67;;;17.60;1.00;;;;;;5072664;28;20199;-77
2022/07/16 06:38:43;;;;;;;5.57;3.27;;;17.70;1.00;;;;;;5073463;28;20178;-77
2022/07/16 06:41:08;;;;;;;8.03;3.93;;;17.70;1.00;;;;;;5072592;28;20271;-78
2022/07/16 06:43:34;;;;;;;7.07;3.50;;;17.80;1.00;;;;;;5074198;28;20237;-77
2022/07/16 06:45:59;;;;;;;5.03;2.80;;;17.90;1.00;;;;;;5073922;28;20231;-77
2022/07/16 06:48:25;;;;;;;5.00;2.93;;;17.90;1.00;;;;;;5074205;28;20553;-77
2022/07/16 06:50:50;;;;;;;5.00;2.97;;;18.00;1.00;;;;;;5074179;28;20545;-77
2022/07/16 06:53:16;;;;;;;8.80;3.50;;;18.00;1.00;;;;;;5073727;28;20195;-78
2022/07/16 06:55:42;;;;;;;4.57;2.90;;;18.10;1.00;;;;;;5072390;28;20687;-77
2022/07/16 06:58:09;;;;;;;5.90;2.63;;;18.10;1.00;;;;;;5071828;28;20201;-77
2022/07/16 07:00:34;;;;;;;4.57;2.87;;;18.20;1.00;;;;;;5072360;28;20633;-78
2022/07/16 07:03:00;;;;;;;4.33;3.47;;;18.20;99.90;;;;;;5072268;28;20179;-77
2022/07/16 07:05:25;;;;;;;5.73;3.30;;;18.10;99.90;;;;;;5073447;28;20195;-78
2022/07/16 07:07:51;;;;;;;14.90;3.93;;;18.10;99.90;;;;;;5073572;28;20313;-77
2022/07/16 07:10:19;;;;;;;6.27;3.50;;;18.20;99.90;;;;;;5073552;28;20175;-78
2022/07/16 07:12:45;;;;;;;6.07;3.60;;;18.20;99.90;;;;;;5071964;28;20644;-77
2022/07/16 07:15:11;;;;;;;5.40;3.53;;;18.20;1.00;;;;;;5073424;28;20183;-77
2022/07/16 07:17:36;;;;;;;6.33;4.10;;;18.30;40.00;;;;;;5073262;28;20171;-77
2022/07/16 07:20:04;;;;;;;4.63;3.47;;;18.30;1.00;;;;;;5073469;28;20178;-78
2022/07/16 07:22:30;;;;;;;5.07;3.00;;;18.40;1.00;;;;;;5073177;28;20548;-78
2022/07/16 07:24:55;;;;;;;3.63;2.60;;;18.40;99.90;;;;;;5073191;28;20183;-78
2022/07/16 07:27:22;;;;;;;6.43;2.57;;;18.40;1.00;;;;;;5073414;28;20183;-78
2022/07/16 07:29:48;;;;;;;4.23;2.53;;;18.50;1.00;;;;;;5073336;28;20209;-77
2022/07/16 07:32:14;;;;;;;9.50;3.13;;;18.60;1.00;;;;;;5073297;28;20179;-78
2022/07/16 07:34:40;;;;;;;5.17;2.33;;;18.70;99.90;;;;;;5073156;28;20203;-78
2022/07/16 07:37:05;;;;;;;4.80;2.17;;;18.70;99.90;;;;;;5071702;28;20641;-78
2022/07/16 07:39:31;;;;;;;3.57;1.50;;;18.70;99.90;;;;;;5071895;28;20167;-77
2022/07/16 07:41:56;;;;;;;2.00;1.13;;;18.80;1.00;;;;;;5073723;28;20179;-78
2022/07/16 07:44:22;;;;;;;1.97;1.10;;;18.80;99.90;;;;;;5078011;28;20175;-77
2022/07/16 07:46:47;;;;;;;2.90;0.90;;;18.90;1.00;;;;;;5071497;28;20336;-77
2022/07/16 07:49:13;;;;;;;1.73;0.90;;;18.90;99.90;;;;;;5073002;28;20551;-78
2022/07/16 07:51:38;;;;;;;2.30;1.10;;;19.00;1.00;;;;;;5073083;28;20182;-78
2022/07/16 07:54:04;;;;;;;3.67;1.00;;;19.00;99.90;;;;;;5072781;28;20210;-77
2022/07/16 07:56:29;;;;;;;1.37;0.80;;;19.00;1.00;;;;;;5071713;28;20298;-78
2022/07/16 07:58:55;;;;;;;2.60;0.90;;;19.00;1.00;;;;;;5071509;28;20265;-77
2022/07/16 08:01:20;;;;;;;1.33;0.77;;;19.00;99.90;;;;;;5072772;28;20253;-77
2022/07/16 08:03:46;;;;;;;1.50;0.90;;;19.10;99.90;;;;;;5073019;28;20210;-77
2022/07/16 08:06:11;;;;;;;2.60;0.73;;;19.20;99.90;;;;;;5072735;28;20226;-77
2022/07/16 08:08:37;;;;;;;2.03;1.00;;;19.20;99.90;;;;;;5072411;28;20222;-78
2022/07/16 08:11:03;;;;;;;1.67;0.80;;;19.20;1.00;;;;;;5071344;28;20240;-78
2022/07/16 08:13:28;;;;;;;3.33;1.20;;;19.30;1.00;;;;;;5072521;28;20210;-77
2022/07/16 08:15:54;;;;;;;1.87;1.10;;;19.30;1.00;;;;;;5072524;28;20195;-77
2022/07/16 08:18:20;;;;;;;2.77;1.17;;;19.40;1.00;;;;;;5072798;28;20186;-78
2022/07/16 08:20:45;;;;;;;5.33;1.20;;;19.50;1.00;;;;;;5072444;28;20241;-77
2022/07/16 08:23:11;;;;;;;5.70;1.37;;;19.60;1.00;;;;;;5073055;28;20637;-77
2022/07/16 08:25:45;;;;;;;4.73;0.90;;;19.70;1.00;;;;;;5071403;28;20191;-77
2022/07/16 08:28:15;;;;;;;1.50;0.90;;;19.60;1.00;;;;;;5072044;28;20507;-78
2022/07/16 08:30:41;;;;;;;1.77;0.90;;;19.70;1.00;;;;;;5073678;28;20170;-78
2022/07/16 08:33:07;;;;;;;2.27;0.97;;;19.80;1.00;;;;;;5077965;28;20550;-78
2022/07/16 08:35:33;;;;;;;3.40;0.90;;;19.90;1.00;;;;;;5071857;28;20258;-77
2022/07/16 08:37:58;;;;;;;2.13;0.80;;;19.90;1.00;;;;;;5074128;28;20246;-77
2022/07/16 08:40:24;;;;;;;1.20;0.90;;;19.90;1.00;;;;;;5072353;28;20629;-78
2022/07/16 08:42:50;;;;;;;3.13;0.80;;;19.80;1.00;;;;;;5071333;28;20178;-78
2022/07/16 08:45:18;;;;;;;2.73;0.70;;;19.80;1.00;;;;;;5075898;28;20199;-78
2022/07/16 08:47:44;;;;;;;3.20;1.03;;;19.80;99.90;;;;;;5082177;28;20175;-76
2022/07/16 08:50:12;;;;;;;1.40;0.90;;;19.80;65.50;;;;;;5079595;28;20183;-77
2022/07/16 08:52:43;;;;;;;1.47;0.73;;;19.80;8.60;;;;;;5081892;28;20657;-78
2022/07/16 08:55:09;;;;;;;1.27;0.87;;;19.90;1.00;;;;;;5081064;28;20282;-77
2022/07/16 08:57:39;;;;;;;2.87;0.80;;;20.10;99.90;;;;;;5077177;28;20174;-77
2022/07/16 09:00:11;;;;;;;1.63;0.77;;;20.00;99.90;;;;;;5071297;28;20171;-78
2022/07/16 09:02:36;;;;;;;4.73;1.87;;;20.00;1.00;;;;;;5071154;28;20171;-77
2022/07/16 09:05:03;;;;;;;2.63;1.20;;;20.00;1.00;;;;;;5072144;28;20725;-78
2022/07/16 09:07:28;;;;;;;3.77;1.27;;;20.10;1.00;;;;;;5071273;28;20203;-78
2022/07/16 09:09:54;;;;;;;2.17;0.80;;;20.00;1.00;;;;;;5070986;28;20178;-77
2022/07/16 09:12:39;;;;;;;1.90;1.03;;;20.00;1.00;;;;;;5072980;28;20175;-77
2022/07/16 09:15:26;;;;;;;1.00;0.73;;;20.20;99.90;;;;;;5070859;28;20207;-78
2022/07/16 09:18:13;;;;;;;1.53;0.70;;;20.40;1.00;;;;;;5071051;28;20174;-78
2022/07/16 09:21:00;;;;;;;2.13;0.80;;;20.50;80.70;;;;;;5072786;28;20171;-77
2022/07/16 09:23:27;;;;;;;2.70;0.90;;;20.60;1.00;;;;;;5074584;28;20645;-77
2022/07/16 09:26:08;;;;;;;3.03;0.87;;;20.70;1.00;;;;;;5075753;28;20227;-78
2022/07/16 09:28:49;;;;;;;4.80;1.00;;;20.50;1.00;;;;;;5077087;28;20159;-78
2022/07/16 09:31:38;;;;;;;3.83;1.13;;;20.50;1.00;;;;;;5082495;28;20205;-77
2022/07/16 09:34:11;;;;;;;2.70;0.80;;;20.40;1.00;;;;;;5076157;28;20183;-78
2022/07/16 09:36:38;;;;;;;2.33;1.10;;;20.40;1.00;;;;;;5074117;28;20190;-77
2022/07/16 09:39:06;;;;;;;1.63;0.90;;;20.60;1.00;;;;;;5075890;28;20585;-76
2022/07/16 09:41:44;;;;;;;3.40;1.13;;;20.80;1.00;;;;;;5075679;28;20620;-78
2022/07/16 09:44:18;;;;;;;1.37;0.90;;;20.80;1.00;;;;;;5075457;28;20166;-77
2022/07/16 09:47:06;;;;;;;4.33;1.20;;;20.90;1.00;;;;;;5075332;28;20186;-77
2022/07/16 09:49:36;;;;;;;2.50;1.10;;;20.90;1.00;;;;;;5075982;28;20186;-77
2022/07/16 09:52:02;;;;;;;1.90;0.90;;;20.90;1.00;;;;;;5075741;28;20647;-77
2022/07/16 09:54:38;;;;;;;1.80;0.80;;;20.90;1.00;;;;;;5075361;28;20690;-77
2022/07/16 09:57:09;;;;;;;3.10;0.70;;;21.00;1.00;;;;;;5073923;28;20197;-77
2022/07/16 09:59:36;;;;;;;1.93;1.10;;;21.10;1.00;;;;;;5075794;28;20517;-77
2022/07/16 10:02:04;;;;;;;2.93;1.20;;;21.20;1.00;;;;;;5074443;28;20177;-78
2022/07/16 10:04:30;;;;;;;4.23;0.90;;;21.30;1.00;;;;;;5074078;28;20198;-78
2022/07/16 10:06:57;;;;;;;1.63;0.87;;;21.20;1.00;;;;;;5075341;28;20191;-78
2022/07/16 10:09:23;;;;;;;2.97;0.90;;;21.10;1.00;;;;;;5075508;28;20290;-78
2022/07/16 10:11:50;;;;;;;2.10;0.90;;;21.00;16.00;;;;;;5073691;28;20183;-78
2022/07/16 10:14:16;;;;;;;1.60;0.97;;;21.00;1.00;;;;;;5074763;28;20224;-77
2022/07/16 10:16:45;;;;;;;4.03;0.80;;;21.10;1.00;;;;;;5074124;28;20204;-78
2022/07/16 10:19:11;;;;;;;1.70;1.00;;;21.20;1.00;;;;;;5075789;28;20195;-78
2022/07/16 10:21:37;;;;;;;1.97;1.00;;;21.30;99.90;;;;;;5074346;28;20202;-79
2022/07/16 10:24:08;;;;;;;3.53;0.90;;;21.40;1.00;;;;;;5076349;28;20178;-77
2022/07/16 10:26:35;;;;;;;1.07;0.90;;;21.60;1.00;;;;;;5076870;28;20688;-78
2022/07/16 10:29:02;;;;;;;2.23;1.20;;;21.50;99.90;;;;;;5073973;28;20270;-78
2022/07/16 10:34:39;;;;;;;3.40;0.90;;;21.40;99.90;;;;;;5075182;28;20200;-78
2022/07/16 10:37:08;;;;;;;2.20;0.70;;;21.30;99.90;;;;;;5075077;28;20198;-78
2022/07/16 10:39:34;;;;;;;1.67;1.23;;;21.50;99.90;;;;;;5075050;28;20174;-78
2022/07/16 10:42:02;;;;;;;2.63;0.80;;;21.50;99.90;;;;;;5074595;28;20202;-78
2022/07/16 10:44:46;;;;;;;3.27;1.00;;;21.50;25.10;;;;;;5074552;28;20308;-78
2022/07/16 10:47:13;;;;;;;1.30;0.80;;;21.50;57.70;;;;;;5074032;28;20198;-78
2022/07/16 10:49:39;;;;;;;5.13;1.00;;;21.70;64.20;;;;;;5074454;28;20179;-77
2022/07/16 10:52:16;;;;;;;1.23;0.70;;;21.80;99.90;;;;;;5073191;28;20274;-78
2022/07/16 10:55:01;;;;;;;2.57;0.97;;;21.90;99.90;;;;;;5074155;28;20191;-78
2022/07/16 10:57:37;;;;;;;1.63;0.70;;;21.60;99.90;;;;;;5074326;28;20155;-78
2022/07/16 11:00:05;;;;;;;2.73;0.87;;;21.50;16.20;;;;;;5074069;28;20233;-78
2022/07/16 11:02:40;;;;;;;2.17;1.20;;;21.60;99.90;;;;;;5072717;28;20186;-78
2022/07/16 11:05:06;;;;;;;0.80;0.60;;;21.70;99.90;;;;;;5073159;28;20629;-78
2022/07/16 11:07:36;;;;;;;1.60;0.67;;;22.00;99.90;;;;;;5074912;28;20179;-78
2022/07/16 11:10:03;;;;;;;3.43;1.10;;;22.00;1.00;;;;;;5074574;28;20171;-78
2022/07/16 11:12:32;;;;;;;3.23;0.90;;;22.00;1.00;;;;;;5072403;28;20182;-78
2022/07/16 11:15:00;;;;;;;1.77;0.70;;;22.10;60.30;;;;;;5073455;28;20268;-78
2022/07/16 11:17:28;;;;;;;3.43;1.03;;;21.90;1.00;;;;;;5075240;28;20224;-77
2022/07/16 11:19:59;;;;;;;2.37;0.60;;;21.90;1.00;;;;;;5073633;28;20258;-78
2022/07/16 11:22:30;;;;;;;4.30;0.90;;;22.00;55.40;;;;;;5073468;28;20186;-78
2022/07/16 11:25:05;;;;;;;3.07;0.90;;;22.00;1.00;;;;;;5073109;28;20182;-78
2022/07/16 11:27:36;;;;;;;0.90;0.70;;;22.00;1.00;;;;;;5073230;28;20179;-77
2022/07/16 11:30:08;;;;;;;2.07;0.80;;;22.10;1.00;;;;;;5073543;28;20510;-78
2022/07/16 11:33:00;;;;;;;1.53;0.70;;;22.10;1.00;;;;;;5073729;28;20257;-78
2022/07/16 11:35:26;;;;;;;1.07;0.60;;;22.20;15.40;;;;;;5071488;28;20594;-78
2022/07/16 11:37:54;;;;;;;1.33;0.80;;;22.10;1.00;;;;;;5071872;28;20183;-77
2022/07/16 11:40:19;;;;;;;1.73;1.00;;;22.20;1.00;;;;;;5073082;28;20175;-77
2022/07/16 11:43:01;;;;;;;4.10;0.90;;;22.30;1.00;;;;;;5071808;28;20564;-77
2022/07/16 11:45:27;;;;;;;1.73;0.70;;;22.40;1.00;;;;;;5072888;28;20198;-78
2022/07/16 11:48:12;;;;;;;3.07;1.00;;;22.40;1.00;;;;;;5071669;28;20185;-78
2022/07/16 11:50:38;;;;;;;2.70;1.00;;;22.30;1.00;;;;;;5071897;28;20667;-78
2022/07/16 11:53:04;;;;;;;1.63;0.80;;;22.10;1.00;;;;;;5071409;28;20175;-78
2022/07/16 11:55:29;;;;;;;2.43;0.90;;;22.10;1.00;;;;;;5071723;28;20198;-78
2022/07/16 11:57:55;;;;;;;2.17;0.90;;;22.10;1.00;;;;;;5073278;28;20167;-78
2022/07/16 12:00:20;;;;;;;1.97;0.80;;;22.20;1.00;;;;;;5072392;28;20178;-77
2022/07/16 12:02:51;;;;;;;4.20;1.03;;;22.20;1.00;;;;;;5072719;28;20245;-77
2022/07/16 12:05:27;;;;;;;3.33;0.63;;;22.40;1.00;;;;;;5073320;28;20237;-78
2022/07/16 12:07:53;;;;;;;4.47;0.90;;;22.50;1.00;;;;;;5072947;28;20162;-77
2022/07/16 12:10:24;;;;;;;3.23;1.00;;;22.60;1.00;;;;;;5072015;28;20183;-77
2022/07/16 12:13:03;;;;;;;2.07;1.10;;;22.50;1.00;;;;;;5071724;28;20707;-78
2022/07/16 12:15:29;;;;;;;1.83;0.80;;;22.60;1.00;;;;;;5072664;28;20285;-77
2022/07/16 12:18:09;;;;;;;0.90;0.70;;;22.80;1.00;;;;;;5072829;28;20217;-78
2022/07/16 12:20:35;;;;;;;3.40;0.97;;;22.80;1.00;;;;;;5073838;28;20182;-78
2022/07/16 12:23:10;;;;;;;3.03;0.80;;;22.70;1.00;;;;;;5073039;28;20169;-78
2022/07/16 12:26:00;;;;;;;1.83;0.60;;;22.60;99.90;;;;;;5072699;28;20277;-78
2022/07/16 12:28:25;;;;;;;4.23;0.80;;;22.60;99.90;;;;;;5071792;28;20178;-78
2022/07/16 12:30:56;;;;;;;3.53;0.60;;;22.60;99.90;;;;;;5072618;28;20170;-77
2022/07/16 12:33:24;;;;;;;3.10;0.80;;;22.40;99.90;;;;;;5072570;28;20307;-78
2022/07/16 12:35:51;;;;;;;2.57;0.63;;;22.50;99.90;;;;;;5071385;28;20195;-78
2022/07/16 12:38:53;;;;;;;2.63;1.00;;;22.60;99.90;;;;;;5073890;28;20657;-78
2022/07/16 12:41:24;;;;;;;2.43;0.90;;;22.70;99.90;;;;;;5072812;28;20241;-78
2022/07/16 12:43:55;;;;;;;1.33;0.80;;;22.80;99.90;;;;;;5071276;28;20202;-78
2022/07/16 12:46:40;;;;;;;1.00;0.73;;;22.90;99.90;;;;;;5071138;28;20202;-78
2022/07/16 12:49:13;;;;;;;2.53;0.90;;;22.60;99.90;;;;;;5072562;28;20151;-78
2022/07/16 12:51:44;;;;;;;1.33;0.70;;;22.70;99.90;;;;;;5072568;28;20163;-78
2022/07/16 12:54:11;;;;;;;1.80;0.80;;;22.70;99.90;;;;;;5072581;28;20278;-78
2022/07/16 12:59:23;;;;;;;4.43;0.97;;;22.90;99.90;;;;;;5076696;28;20220;-78
2022/07/16 13:01:48;;;;;;;1.37;0.87;;;23.00;99.90;;;;;;5074949;28;20173;-77
2022/07/16 13:04:15;;;;;;;2.20;0.83;;;23.20;99.90;;;;;;5080220;28;20179;-78